createdAt,value
2016-08-25T00:00:15.790Z,-49
2016-08-25T00:01:15.774Z,-49
2016-08-25T00:02:15.753Z,-48
2016-08-25T00:03:15.802Z,-48
2016-08-25T00:04:15.794Z,-48
2016-08-25T00:05:15.785Z,-48
2016-08-25T00:06:15.797Z,-48
2016-08-25T00:07:15.857Z,-49
2016-08-25T00:08:15.860Z,-49
2016-08-25T00:09:15.816Z,-48
2016-08-25T00:10:15.816Z,-48
2016-08-25T00:11:15.817Z,-51
2016-08-25T00:12:15.817Z,-50
2016-08-25T00:13:15.836Z,-49
2016-08-25T00:14:15.805Z,-49
2016-08-25T00:15:15.819Z,-49
2016-08-25T00:16:15.840Z,-49
2016-08-25T00:17:15.821Z,-49
2016-08-25T00:18:15.890Z,-49
2016-08-25T00:19:15.877Z,-50
2016-08-25T00:20:15.834Z,-49
2016-08-25T00:21:15.833Z,-50
2016-08-25T00:22:15.821Z,-50
2016-08-25T00:23:15.828Z,-52
2016-08-25T00:24:15.850Z,-50
2016-08-25T00:25:15.854Z,-50
2016-08-25T00:26:15.846Z,-50
2016-08-25T00:27:15.879Z,-46
2016-08-25T00:28:15.900Z,-50
2016-08-25T00:29:15.879Z,-48
2016-08-25T00:30:15.871Z,-50
2016-08-25T00:31:15.942Z,-49
2016-08-25T00:32:15.900Z,-49
2016-08-25T00:33:15.852Z,-49
2016-08-25T00:34:15.835Z,-48
2016-08-25T00:35:15.821Z,-46
2016-08-25T00:36:15.813Z,-50
2016-08-25T00:37:15.879Z,-50
2016-08-25T00:38:15.817Z,-50
2016-08-25T00:39:15.849Z,-50
2016-08-25T00:40:15.856Z,-48
2016-08-25T00:41:15.877Z,-48
2016-08-25T00:42:15.831Z,-49
2016-08-25T00:43:15.876Z,-50
2016-08-25T00:44:15.865Z,-48
2016-08-25T00:45:15.856Z,-48
2016-08-25T00:46:15.788Z,-47
2016-08-25T00:47:15.831Z,-48
2016-08-25T00:48:15.844Z,-48
2016-08-25T00:49:15.836Z,-48
2016-08-25T00:50:15.850Z,-48
2016-08-25T00:51:15.827Z,-48
2016-08-25T00:52:15.861Z,-49
2016-08-25T00:53:15.868Z,-49
2016-08-25T00:54:15.830Z,-51
2016-08-25T00:55:15.838Z,-51
2016-08-25T00:56:15.850Z,-50
2016-08-25T00:57:15.849Z,-50
2016-08-25T00:58:15.890Z,-50
2016-08-25T00:59:15.881Z,-49
2016-08-25T01:00:15.878Z,-50
2016-08-25T01:01:15.855Z,-49
2016-08-25T01:02:15.893Z,-49
2016-08-25T01:03:15.900Z,-49
2016-08-25T01:04:15.905Z,-50
2016-08-25T01:05:15.823Z,-49
2016-08-25T01:06:15.894Z,-49
2016-08-25T01:07:15.880Z,-49
2016-08-25T01:08:15.885Z,-47
2016-08-25T01:09:15.879Z,-49
2016-08-25T01:10:15.898Z,-47
2016-08-25T01:11:15.865Z,-49
2016-08-25T01:12:15.892Z,-48
2016-08-25T01:13:15.851Z,-47
2016-08-25T01:14:15.872Z,-47
2016-08-25T01:15:15.930Z,-50
2016-08-25T01:16:15.852Z,-45
2016-08-25T01:17:15.915Z,-50
2016-08-25T01:18:15.880Z,-46
2016-08-25T01:19:16.004Z,-49
2016-08-25T01:20:15.906Z,-48
2016-08-25T01:21:16.045Z,-46
2016-08-25T01:22:15.881Z,-49
2016-08-25T01:23:15.856Z,-47
2016-08-25T01:24:15.870Z,-49
2016-08-25T01:25:15.888Z,-48
2016-08-25T01:26:15.864Z,-48
2016-08-25T01:27:15.899Z,-46
2016-08-25T01:28:15.880Z,-50
2016-08-25T01:29:15.883Z,-48
2016-08-25T01:30:15.888Z,-48
2016-08-25T01:31:15.869Z,-49
2016-08-25T01:32:15.859Z,-48
2016-08-25T01:33:15.882Z,-48
2016-08-25T01:34:15.895Z,-50
2016-08-25T01:35:15.909Z,-50
2016-08-25T01:36:15.883Z,-47
2016-08-25T01:37:15.912Z,-50
2016-08-25T01:38:15.894Z,-50
2016-08-25T01:39:15.899Z,-49
2016-08-25T01:40:15.889Z,-50
2016-08-25T01:41:15.878Z,-49
2016-08-25T01:42:16.253Z,-49
2016-08-25T01:43:15.873Z,-48
2016-08-25T01:44:15.911Z,-49
2016-08-25T01:45:15.895Z,-50
2016-08-25T01:46:15.883Z,-50
2016-08-25T01:47:15.902Z,-49
2016-08-25T01:48:15.864Z,-50
2016-08-25T01:49:15.901Z,-50
2016-08-25T01:50:15.888Z,-50
2016-08-25T01:51:15.866Z,-49
2016-08-25T01:52:15.884Z,-49
2016-08-25T01:53:15.927Z,-50
2016-08-25T01:54:15.942Z,-49
2016-08-25T01:55:16.456Z,-51
2016-08-25T01:56:15.882Z,-50
2016-08-25T01:57:15.942Z,-49
2016-08-25T01:58:15.868Z,-49
2016-08-25T01:59:15.883Z,-50
2016-08-25T02:00:15.922Z,-48
2016-08-25T02:01:15.884Z,-48
2016-08-25T02:02:15.901Z,-48
2016-08-25T02:03:15.871Z,-53
2016-08-25T02:04:15.901Z,-51
2016-08-25T02:05:15.914Z,-47
2016-08-25T02:06:15.958Z,-48
2016-08-25T02:07:15.927Z,-50
2016-08-25T02:12:34.411Z,-48
2016-08-25T02:12:44.559Z,-48
2016-08-25T02:13:44.562Z,-50
2016-08-25T02:14:44.519Z,-50
2016-08-25T02:15:44.492Z,-50
2016-08-25T02:16:44.519Z,-50
2016-08-25T02:17:44.526Z,-49
2016-08-25T02:18:44.519Z,-48
2016-08-25T02:19:44.577Z,-48
2016-08-25T02:20:44.514Z,-49
2016-08-25T02:21:44.532Z,-50
2016-08-25T02:22:44.507Z,-49
2016-08-25T02:23:44.548Z,-48
2016-08-25T02:24:44.522Z,-48
2016-08-25T02:25:44.594Z,-47
2016-08-25T02:26:44.507Z,-47
2016-08-25T02:27:44.543Z,-47
2016-08-25T02:28:44.550Z,-47
2016-08-25T02:29:44.555Z,-47
2016-08-25T02:30:44.553Z,-48
2016-08-25T02:31:44.542Z,-48
2016-08-25T02:32:44.559Z,-48
2016-08-25T02:33:44.539Z,-48
2016-08-25T02:34:44.536Z,-48
2016-08-25T02:35:44.522Z,-49
2016-08-25T02:36:44.535Z,-49
2016-08-25T02:37:44.568Z,-49
2016-08-25T02:38:44.536Z,-49
2016-08-25T02:39:44.521Z,-49
2016-08-25T02:40:44.514Z,-49
2016-08-25T02:41:44.565Z,-49
2016-08-25T02:42:44.511Z,-49
2016-08-25T02:43:44.520Z,-48
2016-08-25T02:44:44.510Z,-49
2016-08-25T02:45:44.534Z,-48
2016-08-25T02:46:44.510Z,-48
2016-08-25T02:47:44.564Z,-48
2016-08-25T02:48:44.538Z,-50
2016-08-25T02:49:44.533Z,-50
2016-08-25T02:50:44.551Z,-51
2016-08-25T02:51:44.536Z,-50
2016-08-25T02:52:44.536Z,-51
2016-08-25T02:53:44.555Z,-51
2016-08-25T02:54:44.533Z,-51
2016-08-25T02:55:44.556Z,-49
2016-08-25T02:56:44.548Z,-49
2016-08-25T02:57:44.571Z,-50
2016-08-25T02:58:44.597Z,-50
2016-08-25T02:59:44.556Z,-50
2016-08-25T03:00:44.537Z,-50
2016-08-25T03:01:44.538Z,-50
2016-08-25T03:02:44.613Z,-51
2016-08-25T03:03:44.567Z,-50
2016-08-25T03:04:44.599Z,-48
2016-08-25T03:05:44.611Z,-50
2016-08-25T03:06:44.629Z,-46
2016-08-25T03:07:44.581Z,-51
2016-08-25T03:08:44.595Z,-49
2016-08-25T03:09:44.582Z,-48
2016-08-25T03:10:44.629Z,-48
2016-08-25T03:11:44.628Z,-47
2016-08-25T03:12:44.596Z,-47
2016-08-25T03:13:44.571Z,-50
2016-08-25T03:14:44.606Z,-50
2016-08-25T03:15:44.555Z,-49
2016-08-25T03:16:44.563Z,-49
2016-08-25T03:17:44.600Z,-49
2016-08-25T03:18:44.569Z,-49
2016-08-25T03:19:44.602Z,-48
2016-08-25T03:20:44.564Z,-48
2016-08-25T03:21:44.569Z,-48
2016-08-25T03:22:44.553Z,-49
2016-08-25T03:23:44.656Z,-48
2016-08-25T03:24:44.598Z,-49
2016-08-25T03:25:44.630Z,-50
2016-08-25T03:26:44.587Z,-49
2016-08-25T03:27:44.582Z,-46
2016-08-25T03:28:44.573Z,-48
2016-08-25T03:34:02.806Z,-49
2016-08-25T03:34:12.922Z,-51
2016-08-25T03:35:12.884Z,-48
2016-08-25T03:36:12.890Z,-50
2016-08-25T03:37:12.895Z,-51
2016-08-25T03:38:12.910Z,-50
2016-08-25T03:39:12.908Z,-50
2016-08-25T03:40:12.918Z,-51
2016-08-25T03:41:12.934Z,-51
2016-08-25T03:42:12.889Z,-51
2016-08-25T03:43:12.907Z,-51
2016-08-25T03:44:12.919Z,-52
2016-08-25T03:45:12.963Z,-51
2016-08-25T03:46:12.964Z,-50
2016-08-25T03:47:12.937Z,-51
2016-08-25T03:48:12.923Z,-49
2016-08-25T03:49:12.936Z,-51
2016-08-25T03:50:12.923Z,-49
2016-08-25T03:51:12.944Z,-49
2016-08-25T03:52:12.931Z,-50
2016-08-25T03:53:12.940Z,-50
2016-08-25T03:54:12.950Z,-49
2016-08-25T03:55:12.969Z,-50
2016-08-25T03:56:12.950Z,-49
2016-08-25T03:57:12.992Z,-50
2016-08-25T03:58:12.930Z,-51
2016-08-25T03:59:12.942Z,-47
2016-08-25T04:00:12.903Z,-47
2016-08-25T04:01:12.916Z,-47
2016-08-25T04:02:12.933Z,-48
2016-08-25T04:03:12.947Z,-47
2016-08-25T04:04:12.904Z,-48
2016-08-25T04:05:12.950Z,-48
2016-08-25T04:06:12.905Z,-47
2016-08-25T04:07:12.939Z,-47
2016-08-25T04:08:12.919Z,-48
2016-08-25T04:09:12.938Z,-47
2016-08-25T04:10:12.935Z,-47
2016-08-25T04:11:12.950Z,-51
2016-08-25T04:12:12.962Z,-50
2016-08-25T04:13:12.954Z,-48
2016-08-25T04:14:12.928Z,-48
2016-08-25T04:15:12.920Z,-48
2016-08-25T04:16:12.902Z,-48
2016-08-25T04:17:12.914Z,-45
2016-08-25T04:18:12.922Z,-47
2016-08-25T04:19:12.964Z,-47
2016-08-25T04:20:12.951Z,-50
2016-08-25T04:21:12.942Z,-51
2016-08-25T04:22:12.937Z,-48
2016-08-25T04:23:12.956Z,-48
2016-08-25T04:24:13.011Z,-48
2016-08-25T04:25:12.983Z,-49
2016-08-25T04:26:12.963Z,-48
2016-08-25T04:27:12.982Z,-49
2016-08-25T04:28:13.001Z,-49
2016-08-25T04:29:12.986Z,-51
2016-08-25T04:30:12.982Z,-49
2016-08-25T04:31:12.987Z,-50
2016-08-25T04:32:13.374Z,-49
2016-08-25T04:33:13.011Z,-51
2016-08-25T04:34:12.995Z,-51
2016-08-25T04:35:13.029Z,-51
2016-08-25T04:36:13.005Z,-51
2016-08-25T04:37:13.023Z,-51
2016-08-25T04:38:13.299Z,-49
2016-08-25T04:39:13.028Z,-50
2016-08-25T04:40:13.020Z,-51
2016-08-25T04:41:13.006Z,-50
2016-08-25T04:42:12.978Z,-51
2016-08-25T04:43:12.971Z,-50
2016-08-25T04:44:12.996Z,-50
2016-08-25T04:45:12.970Z,-51
2016-08-25T04:46:13.019Z,-51
2016-08-25T04:47:12.985Z,-51
2016-08-25T04:48:12.952Z,-50
2016-08-25T04:49:12.969Z,-50
2016-08-25T04:50:12.977Z,-50
2016-08-25T04:51:12.981Z,-51
2016-08-25T04:52:12.958Z,-50
2016-08-25T04:53:13.010Z,-51
2016-08-25T04:54:12.983Z,-49
2016-08-25T04:55:12.981Z,-48
2016-08-25T04:56:12.969Z,-48
2016-08-25T04:57:12.959Z,-48
2016-08-25T04:58:12.999Z,-47
2016-08-25T04:59:12.996Z,-47
2016-08-25T05:00:13.013Z,-47
2016-08-25T05:01:13.004Z,-47
2016-08-25T05:02:13.010Z,-45
2016-08-25T05:03:12.958Z,-45
2016-08-25T05:04:13.073Z,-50
2016-08-25T05:05:13.003Z,-47
2016-08-25T05:06:13.027Z,-47
2016-08-25T05:07:13.802Z,-47
2016-08-25T05:08:13.089Z,-47
2016-08-25T05:09:13.093Z,-47
2016-08-25T05:10:13.104Z,-48
2016-08-25T05:11:13.088Z,-45
2016-08-25T05:12:13.149Z,-48
2016-08-25T05:13:13.078Z,-48
2016-08-25T05:14:13.074Z,-49
2016-08-25T05:15:13.074Z,-49
2016-08-25T05:16:13.093Z,-48
2016-08-25T05:17:13.136Z,-48
2016-08-25T05:18:13.077Z,-49
2016-08-25T05:19:13.047Z,-49
2016-08-25T05:20:13.080Z,-49
2016-08-25T05:21:13.097Z,-49
2016-08-25T05:22:13.108Z,-48
2016-08-25T05:23:13.015Z,-48
2016-08-25T05:24:13.077Z,-46
2016-08-25T05:25:13.158Z,-50
2016-08-25T05:26:13.079Z,-49
2016-08-25T05:27:13.049Z,-49
2016-08-25T05:28:13.042Z,-49
2016-08-25T05:29:12.999Z,-48
2016-08-25T05:30:12.985Z,-47
2016-08-25T05:31:13.014Z,-48
2016-08-25T05:32:13.032Z,-48
2016-08-25T05:33:12.998Z,-48
2016-08-25T05:34:13.029Z,-48
2016-08-25T05:35:13.001Z,-48
2016-08-25T05:36:13.012Z,-48
2016-08-25T05:37:13.028Z,-48
2016-08-25T05:38:13.013Z,-48
2016-08-25T05:39:13.049Z,-48
2016-08-25T05:40:13.086Z,-50
2016-08-25T05:41:13.047Z,-50
2016-08-25T05:42:13.030Z,-49
2016-08-25T05:43:13.136Z,-51
2016-08-25T05:44:13.167Z,-51
2016-08-25T05:45:13.111Z,-48
2016-08-25T05:46:13.051Z,-49
2016-08-25T05:47:13.091Z,-51
2016-08-25T05:48:13.136Z,-50
2016-08-25T05:49:13.125Z,-50
2016-08-25T05:50:13.396Z,-50
2016-08-25T05:51:13.070Z,-50
2016-08-25T05:52:13.033Z,-48
2016-08-25T05:53:13.052Z,-48
2016-08-25T05:54:13.071Z,-48
2016-08-25T05:55:13.078Z,-48
2016-08-25T05:56:13.045Z,-48
2016-08-25T05:57:13.065Z,-50
2016-08-25T05:58:13.034Z,-50
2016-08-25T05:59:13.059Z,-49
2016-08-25T06:00:13.078Z,-47
2016-08-25T06:01:13.038Z,-46
2016-08-25T06:02:13.031Z,-48
2016-08-25T06:03:13.026Z,-48
2016-08-25T06:04:13.061Z,-47
2016-08-25T06:05:13.035Z,-48
2016-08-25T06:06:13.047Z,-46
2016-08-25T06:07:13.050Z,-46
2016-08-25T06:08:13.046Z,-48
2016-08-25T06:09:13.139Z,-48
2016-08-25T06:10:13.059Z,-48
2016-08-25T06:11:13.042Z,-48
2016-08-25T06:12:13.058Z,-48
2016-08-25T06:13:13.091Z,-48
2016-08-25T06:14:13.077Z,-48
2016-08-25T06:15:13.045Z,-48
2016-08-25T06:16:13.060Z,-51
2016-08-25T06:17:13.065Z,-49
2016-08-25T06:18:13.089Z,-49
2016-08-25T06:19:13.078Z,-49
2016-08-25T06:20:13.097Z,-49
2016-08-25T06:21:13.086Z,-50
2016-08-25T06:22:13.065Z,-48
2016-08-25T06:23:13.061Z,-47
2016-08-25T06:24:13.064Z,-49
2016-08-25T06:25:13.065Z,-47
2016-08-25T06:26:13.150Z,-47
2016-08-25T06:27:13.082Z,-47
2016-08-25T06:28:13.139Z,-47
2016-08-25T06:29:13.148Z,-46
2016-08-25T06:30:13.139Z,-48
2016-08-25T06:31:13.088Z,-48
2016-08-25T06:32:13.079Z,-48
2016-08-25T06:33:13.141Z,-49
2016-08-25T06:34:13.171Z,-49
2016-08-25T06:35:13.080Z,-51
2016-08-25T06:36:13.057Z,-48
2016-08-25T06:37:13.136Z,-49
2016-08-25T06:38:13.111Z,-48
2016-08-25T06:39:13.078Z,-49
2016-08-25T06:40:13.099Z,-50
2016-08-25T06:41:13.062Z,-50
2016-08-25T06:42:13.068Z,-49
2016-08-25T06:43:13.099Z,-50
2016-08-25T06:44:13.122Z,-51
2016-08-25T06:45:13.119Z,-51
2016-08-25T06:46:13.110Z,-49
2016-08-25T06:47:13.122Z,-47
2016-08-25T06:48:13.082Z,-49
2016-08-25T06:49:13.135Z,-50
2016-08-25T06:50:13.318Z,-49
2016-08-25T06:51:13.221Z,-50
2016-08-25T06:52:13.092Z,-48
2016-08-25T06:53:13.083Z,-47
2016-08-25T06:54:13.143Z,-50
2016-08-25T06:55:13.125Z,-51
2016-08-25T06:56:13.108Z,-50
2016-08-25T06:57:13.114Z,-50
2016-08-25T06:58:13.162Z,-48
2016-08-25T06:59:13.141Z,-48
2016-08-25T07:00:13.136Z,-50
2016-08-25T07:01:13.107Z,-47
2016-08-25T07:02:13.103Z,-50
2016-08-25T07:03:13.150Z,-49
2016-08-25T07:04:13.156Z,-47
2016-08-25T07:05:13.156Z,-48
2016-08-25T07:06:13.232Z,-49
2016-08-25T07:07:13.183Z,-49
2016-08-25T07:08:13.175Z,-50
2016-08-25T07:09:13.139Z,-50
2016-08-25T07:10:13.253Z,-49
2016-08-25T07:11:13.217Z,-49
2016-08-25T07:12:13.225Z,-50
2016-08-25T07:13:13.184Z,-49
2016-08-25T07:14:13.192Z,-48
2016-08-25T07:15:13.154Z,-51
2016-08-25T07:16:13.881Z,-51
2016-08-25T07:17:13.238Z,-51
2016-08-25T07:18:13.130Z,-51
2016-08-25T07:19:13.137Z,-49
2016-08-25T07:20:13.142Z,-49
2016-08-25T07:21:13.201Z,-50
2016-08-25T07:22:13.225Z,-52
2016-08-25T07:23:13.801Z,-52
2016-08-25T07:24:13.201Z,-51
2016-08-25T07:25:13.154Z,-50
2016-08-25T07:26:13.146Z,-49
2016-08-25T07:27:13.208Z,-50
2016-08-25T07:28:13.233Z,-50
2016-08-25T07:29:13.139Z,-50
2016-08-25T07:30:13.205Z,-50
2016-08-25T07:31:13.187Z,-51
2016-08-25T07:32:13.185Z,-50
2016-08-25T07:33:13.177Z,-49
2016-08-25T07:34:13.237Z,-47
2016-08-25T07:35:13.164Z,-46
2016-08-25T07:36:13.267Z,-48
2016-08-25T07:37:13.201Z,-47
2016-08-25T07:38:13.146Z,-48
2016-08-25T07:39:13.155Z,-47
2016-08-25T07:40:13.189Z,-48
2016-08-25T07:41:13.169Z,-49
2016-08-25T07:42:13.173Z,-51
2016-08-25T07:43:13.216Z,-49
2016-08-25T07:44:13.143Z,-50
2016-08-25T07:45:13.215Z,-52
2016-08-25T07:46:13.178Z,-49
2016-08-25T07:47:13.162Z,-49
2016-08-25T07:48:13.143Z,-49
2016-08-25T07:49:13.237Z,-49
2016-08-25T07:50:13.206Z,-49
2016-08-25T07:51:13.204Z,-49
2016-08-25T07:52:13.180Z,-51
2016-08-25T07:53:13.160Z,-49
2016-08-25T07:54:13.182Z,-50
2016-08-25T07:55:13.188Z,-50
2016-08-25T07:56:13.193Z,-50
2016-08-25T07:57:13.156Z,-49
2016-08-25T07:58:13.176Z,-47
2016-08-25T07:59:13.168Z,-49
2016-08-25T08:00:13.908Z,-50
2016-08-25T08:01:13.188Z,-48
2016-08-25T08:02:13.248Z,-50
2016-08-25T08:03:13.297Z,-49
2016-08-25T08:04:13.285Z,-51
2016-08-25T08:05:13.270Z,-50
2016-08-25T08:06:13.229Z,-47
2016-08-25T08:07:13.312Z,-50
2016-08-25T08:08:13.211Z,-51
2016-08-25T08:09:13.178Z,-49
2016-08-25T08:10:13.216Z,-49
2016-08-25T08:11:13.245Z,-50
2016-08-25T08:12:14.543Z,-48
2016-08-25T08:13:13.218Z,-48
2016-08-25T08:14:13.197Z,-47
2016-08-25T08:15:13.432Z,-48
2016-08-25T08:16:13.193Z,-47
2016-08-25T08:17:13.186Z,-47
2016-08-25T08:18:13.467Z,-50
2016-08-25T08:19:13.480Z,-50
2016-08-25T08:20:13.225Z,-47
2016-08-25T08:21:13.233Z,-47
2016-08-25T08:22:13.400Z,-47
2016-08-25T08:23:13.452Z,-47
2016-08-25T08:24:13.197Z,-47
2016-08-25T08:25:13.208Z,-47
2016-08-25T08:26:13.204Z,-47
2016-08-25T08:27:13.157Z,-46
2016-08-25T08:28:13.228Z,-47
2016-08-25T08:29:13.157Z,-48
2016-08-25T08:30:50.170Z,-50
2016-08-25T08:32:25.498Z,-48
2016-08-25T08:33:45.225Z,-50
2016-08-25T08:35:07.538Z,-50
2016-08-25T08:36:29.573Z,-50
2016-08-25T08:37:53.485Z,-47
2016-08-25T08:39:14.085Z,-50
2016-08-25T08:40:33.366Z,-51
2016-08-25T08:41:54.525Z,-47
2016-08-25T08:43:12.646Z,-50
2016-08-25T08:44:29.541Z,-48
2016-08-25T08:45:48.552Z,-51
2016-08-25T08:47:07.631Z,-50
2016-08-25T08:48:26.904Z,-51
2016-08-25T08:49:46.479Z,-50
2016-08-25T08:51:06.753Z,-52
2016-08-25T08:52:24.234Z,-52
2016-08-25T08:53:46.632Z,-53
2016-08-25T08:55:10.471Z,-50
2016-08-25T08:56:35.431Z,-52
2016-08-25T08:57:58.574Z,-50
2016-08-25T08:59:24.219Z,-49
2016-08-25T09:00:49.992Z,-51
2016-08-25T09:02:19.324Z,-51
2016-08-25T09:03:33.989Z,-50
2016-08-25T09:04:52.639Z,-51
2016-08-25T09:06:15.633Z,-51
2016-08-25T09:07:37.049Z,-50
2016-08-25T09:08:57.175Z,-50
2016-08-25T09:10:19.215Z,-50
2016-08-25T09:11:41.806Z,-50
2016-08-25T09:13:06.028Z,-51
2016-08-25T09:14:33.669Z,-49
2016-08-25T09:15:59.601Z,-49
2016-08-25T09:17:23.901Z,-50
2016-08-25T09:18:45.989Z,-51
2016-08-25T09:20:12.619Z,-50
2016-08-25T09:21:35.369Z,-50
2016-08-25T09:22:59.128Z,-52
2016-08-25T09:24:22.721Z,-54
2016-08-25T09:25:43.538Z,-51
2016-08-25T09:27:05.389Z,-51
2016-08-25T09:28:31.288Z,-51
2016-08-25T09:29:52.545Z,-50
2016-08-25T09:31:09.466Z,-48
2016-08-25T09:32:31.941Z,-49
2016-08-25T09:33:54.246Z,-49
2016-08-25T09:35:15.730Z,-50
2016-08-25T09:36:38.108Z,-51
2016-08-25T09:37:58.354Z,-53
2016-08-25T09:39:18.888Z,-52
2016-08-25T09:40:37.518Z,-50
2016-08-25T09:41:56.564Z,-51
2016-08-25T09:43:14.594Z,-52
2016-08-25T09:44:30.318Z,-51
2016-08-25T09:45:46.801Z,-51
2016-08-25T09:47:07.074Z,-51
2016-08-25T09:48:26.191Z,-52
2016-08-25T09:49:42.151Z,-49
2016-08-25T09:51:03.051Z,-50
2016-08-25T09:52:20.873Z,-49
2016-08-25T09:53:40.620Z,-49
2016-08-25T09:55:00.174Z,-52
2016-08-25T09:56:17.705Z,-52
2016-08-25T09:57:37.461Z,-51
2016-08-25T09:58:55.342Z,-52
2016-08-25T10:00:16.095Z,-50
2016-08-25T10:01:34.602Z,-50
2016-08-25T10:02:51.512Z,-49
2016-08-25T10:04:09.072Z,-50
2016-08-25T10:05:26.151Z,-50
2016-08-25T10:06:50.386Z,-51
2016-08-25T10:08:12.425Z,-53
2016-08-25T10:09:33.245Z,-48
2016-08-25T10:10:54.486Z,-49
2016-08-25T10:12:14.868Z,-48
2016-08-25T10:13:38.495Z,-53
2016-08-25T10:14:59.475Z,-48
2016-08-25T10:16:23.086Z,-48
2016-08-25T10:17:46.230Z,-50
2016-08-25T10:19:07.184Z,-50
2016-08-25T10:20:27.794Z,-50
2016-08-25T10:21:50.582Z,-49
2016-08-25T10:23:13.840Z,-49
2016-08-25T10:24:36.332Z,-49
2016-08-25T10:25:57.504Z,-49
2016-08-25T10:27:18.930Z,-48
2016-08-25T10:28:40.820Z,-49
2016-08-25T10:30:03.146Z,-48
2016-08-25T10:31:23.923Z,-49
2016-08-25T10:32:47.812Z,-48
2016-08-25T10:34:10.251Z,-50
2016-08-25T10:35:31.435Z,-49
2016-08-25T10:36:51.180Z,-49
2016-08-25T10:38:12.885Z,-49
2016-08-25T10:39:35.926Z,-49
2016-08-25T10:40:57.222Z,-48
2016-08-25T10:42:07.366Z,-49
2016-08-25T10:43:28.327Z,-49
2016-08-25T10:44:50.397Z,-49
2016-08-25T10:46:12.417Z,-47
2016-08-25T10:47:35.253Z,-48
2016-08-25T10:48:57.865Z,-48
2016-08-25T10:50:19.710Z,-47
2016-08-25T10:51:41.826Z,-50
2016-08-25T10:53:06.004Z,-49
2016-08-25T10:54:30.871Z,-51
2016-08-25T10:55:53.143Z,-48
2016-08-25T10:57:15.305Z,-48
2016-08-25T10:58:36.484Z,-50
2016-08-25T10:59:57.719Z,-49
2016-08-25T11:01:19.531Z,-49
2016-08-25T11:02:41.277Z,-47
2016-08-25T11:04:02.838Z,-49
2016-08-25T11:05:24.319Z,-50
2016-08-25T11:06:46.252Z,-49
2016-08-25T11:08:07.536Z,-48
2016-08-25T11:09:30.549Z,-49
2016-08-25T11:10:53.003Z,-48
2016-08-25T11:12:15.601Z,-49
2016-08-25T11:13:38.243Z,-48
2016-08-25T11:15:00.435Z,-48
2016-08-25T11:16:22.101Z,-49
2016-08-25T11:17:43.305Z,-50
2016-08-25T11:19:05.937Z,-50
2016-08-25T11:20:27.984Z,-49
2016-08-25T11:21:47.972Z,-50
2016-08-25T11:23:09.477Z,-49
2016-08-25T11:24:31.162Z,-48
2016-08-25T11:25:52.919Z,-48
2016-08-25T11:27:18.483Z,-52
2016-08-25T11:28:41.331Z,-51
2016-08-25T11:30:02.185Z,-49
2016-08-25T11:31:23.615Z,-49
2016-08-25T11:32:46.294Z,-49
2016-08-25T11:34:07.790Z,-51
2016-08-25T11:35:31.077Z,-49
2016-08-25T11:36:54.333Z,-51
2016-08-25T11:38:14.614Z,-51
2016-08-25T11:39:39.767Z,-50
2016-08-25T11:41:02.886Z,-51
2016-08-25T11:42:23.748Z,-54
2016-08-25T11:43:46.553Z,-55
2016-08-25T11:47:08.488Z,-52
2016-08-25T11:48:30.448Z,-52
2016-08-25T11:49:52.775Z,-53
2016-08-25T11:51:15.210Z,-51
2016-08-25T11:52:36.301Z,-50
2016-08-25T11:53:57.655Z,-54
2016-08-25T11:55:18.995Z,-56
2016-08-25T11:56:40.826Z,-55
2016-08-25T11:58:02.809Z,-55
2016-08-25T11:59:25.817Z,-55
2016-08-25T12:00:48.646Z,-53
2016-08-25T12:02:07.819Z,-54
2016-08-25T12:03:28.279Z,-54
2016-08-25T12:04:50.226Z,-55
2016-08-25T12:06:11.741Z,-54
2016-08-25T12:07:35.914Z,-56
2016-08-25T12:08:58.587Z,-56
2016-08-25T12:10:22.317Z,-54
2016-08-25T12:11:43.276Z,-52
2016-08-25T12:13:06.632Z,-55
2016-08-25T12:14:29.373Z,-53
2016-08-25T12:15:51.137Z,-54
2016-08-25T12:17:12.601Z,-55
2016-08-25T12:18:34.093Z,-53
2016-08-25T12:19:59.944Z,-52
2016-08-25T12:21:22.582Z,-52
2016-08-25T12:22:45.185Z,-53
2016-08-25T12:24:09.177Z,-53
2016-08-25T12:25:30.987Z,-55
2016-08-25T12:26:53.676Z,-54
2016-08-25T12:28:14.766Z,-53
2016-08-25T12:29:33.388Z,-55
2016-08-25T12:30:53.292Z,-54
2016-08-25T12:32:15.444Z,-54
2016-08-25T12:33:38.884Z,-53
2016-08-25T12:35:02.509Z,-53
2016-08-25T12:36:26.238Z,-53
2016-08-25T12:37:52.185Z,-55
2016-08-25T12:39:18.589Z,-53
2016-08-25T12:40:40.734Z,-55
2016-08-25T12:42:04.413Z,-53
2016-08-25T12:43:27.734Z,-56
2016-08-25T12:44:50.604Z,-56
2016-08-25T12:46:09.865Z,-55
2016-08-25T12:47:31.073Z,-55
2016-08-25T12:48:54.303Z,-56
2016-08-25T12:50:12.604Z,-54
2016-08-25T12:51:34.735Z,-54
2016-08-25T12:52:55.674Z,-54
2016-08-25T12:54:17.578Z,-55
2016-08-25T12:55:40.247Z,-55
2016-08-25T12:57:01.722Z,-57
2016-08-25T12:58:26.433Z,-55
2016-08-25T12:59:48.791Z,-56
2016-08-25T13:01:12.565Z,-55
2016-08-25T13:02:35.120Z,-55
2016-08-25T13:03:58.358Z,-50
2016-08-25T13:05:23.385Z,-50
2016-08-25T13:06:40.701Z,-51
2016-08-25T13:08:03.516Z,-52
2016-08-25T13:09:25.242Z,-53
2016-08-25T13:10:47.240Z,-52
2016-08-25T13:12:08.019Z,-51
2016-08-25T13:13:29.539Z,-51
2016-08-25T13:14:52.608Z,-51
2016-08-25T13:16:15.172Z,-50
2016-08-25T13:17:37.843Z,-51
2016-08-25T13:18:58.190Z,-52
2016-08-25T13:20:19.355Z,-48
2016-08-25T13:21:42.026Z,-51
2016-08-25T13:23:04.322Z,-51
2016-08-25T13:24:28.061Z,-52
2016-08-25T13:25:51.061Z,-50
2016-08-25T13:27:16.559Z,-50
2016-08-25T13:28:40.485Z,-51
2016-08-25T13:30:01.348Z,-51
2016-08-25T13:31:21.819Z,-50
2016-08-25T13:32:42.925Z,-50
2016-08-25T13:34:04.014Z,-50
2016-08-25T13:35:26.169Z,-53
2016-08-25T13:36:47.300Z,-50
2016-08-25T13:38:09.084Z,-53
2016-08-25T13:39:33.159Z,-52
2016-08-25T13:40:53.851Z,-54
2016-08-25T13:42:19.865Z,-52
2016-08-25T13:43:44.354Z,-52
2016-08-25T13:45:07.391Z,-52
2016-08-25T13:46:27.711Z,-53
2016-08-25T13:47:52.167Z,-52
2016-08-25T13:49:11.819Z,-53
2016-08-25T13:50:33.378Z,-51
2016-08-25T13:51:58.236Z,-52
2016-08-25T13:53:24.416Z,-52
2016-08-25T13:54:46.504Z,-51
2016-08-25T13:56:07.737Z,-54
2016-08-25T13:57:27.952Z,-54
2016-08-25T13:58:50.707Z,-53
2016-08-25T14:00:12.602Z,-50
2016-08-25T14:01:35.431Z,-52
2016-08-25T14:02:57.984Z,-51
2016-08-25T14:04:17.694Z,-52
2016-08-25T14:05:39.869Z,-51
2016-08-25T14:07:00.515Z,-52
2016-08-25T14:08:22.977Z,-52
2016-08-25T14:09:43.894Z,-51
2016-08-25T14:11:06.391Z,-51
2016-08-25T14:12:27.018Z,-51
2016-08-25T14:13:47.858Z,-49
2016-08-25T14:15:10.262Z,-48
2016-08-25T14:16:29.556Z,-52
2016-08-25T14:17:51.074Z,-52
2016-08-25T14:19:15.087Z,-51
2016-08-25T14:20:37.239Z,-52
2016-08-25T14:21:59.609Z,-52
2016-08-25T14:23:19.293Z,-51
2016-08-25T14:24:43.393Z,-52
2016-08-25T14:25:58.351Z,-52
2016-08-25T14:26:09.670Z,-54
2016-08-25T14:27:08.456Z,-54
2016-08-25T14:28:08.416Z,-54
2016-08-25T14:29:08.443Z,-52
2016-08-25T14:30:08.552Z,-52
2016-08-25T14:31:08.732Z,-52
2016-08-25T14:32:08.577Z,-54
2016-08-25T14:33:08.457Z,-55
2016-08-25T14:34:08.511Z,-52
2016-08-25T14:35:08.486Z,-53
2016-08-25T14:36:08.468Z,-50
2016-08-25T14:37:08.462Z,-53
2016-08-25T14:38:08.452Z,-53
2016-08-25T14:39:08.442Z,-53
2016-08-25T14:40:08.487Z,-54
2016-08-25T14:41:08.463Z,-51
2016-08-25T14:42:08.559Z,-54
2016-08-25T14:43:08.542Z,-55
2016-08-25T14:44:08.521Z,-54
2016-08-25T14:45:08.515Z,-53
2016-08-25T14:46:08.476Z,-54
2016-08-25T14:47:08.501Z,-54
2016-08-25T14:48:08.507Z,-55
2016-08-25T14:49:08.524Z,-55
2016-08-25T14:50:08.503Z,-53
2016-08-25T14:51:08.763Z,-52
2016-08-25T14:52:08.548Z,-51
2016-08-25T14:53:08.720Z,-55
2016-08-25T14:54:08.745Z,-55
2016-08-25T14:55:08.578Z,-55
2016-08-25T14:56:08.546Z,-56
2016-08-25T14:57:08.538Z,-56
2016-08-25T14:58:08.583Z,-55
2016-08-25T14:59:08.554Z,-54
2016-08-25T15:00:08.912Z,-55
2016-08-25T15:01:08.578Z,-51
2016-08-25T15:02:08.517Z,-56
2016-08-25T15:03:08.518Z,-53
2016-08-25T15:04:08.548Z,-55
2016-08-25T15:05:08.506Z,-55
2016-08-25T15:06:09.138Z,-54
2016-08-25T15:07:08.502Z,-55
2016-08-25T15:08:08.578Z,-54
2016-08-25T15:09:08.514Z,-52
2016-08-25T15:10:08.534Z,-54
2016-08-25T15:11:08.551Z,-54
2016-08-25T15:12:08.490Z,-53
2016-08-25T15:13:09.243Z,-53
2016-08-25T15:14:08.507Z,-55
2016-08-25T15:15:08.527Z,-50
2016-08-25T15:16:08.532Z,-51
2016-08-25T15:17:08.828Z,-51
2016-08-25T15:18:08.549Z,-54
2016-08-25T15:19:08.506Z,-53
2016-08-25T15:20:08.558Z,-54
2016-08-25T15:21:08.530Z,-54
2016-08-25T15:22:08.699Z,-53
2016-08-25T15:23:08.565Z,-52
2016-08-25T15:24:08.550Z,-51
2016-08-25T15:25:08.595Z,-50
2016-08-25T15:26:08.718Z,-53
2016-08-25T15:27:08.624Z,-56
2016-08-25T15:28:08.630Z,-56
2016-08-25T15:29:08.577Z,-54